createdAt,value
2022-09-26T00:00:32.956Z,4.15
2022-09-26T00:03:25.668Z,3.15
2022-09-26T00:06:20.170Z,2.88
2022-09-26T00:09:15.144Z,4.70
2022-09-26T00:12:08.862Z,4.43
2022-09-26T00:15:01.860Z,4.43
2022-09-26T00:17:56.312Z,3.97
2022-09-26T00:20:49.844Z,3.30
2022-09-26T00:23:43.332Z,5.03
2022-09-26T00:26:38.152Z,3.08
2022-09-26T00:29:30.926Z,3.97
2022-09-26T00:32:23.545Z,5.28
2022-09-26T00:35:19.356Z,3.20
2022-09-26T00:38:12.524Z,3.47
2022-09-26T00:41:07.423Z,3.17
2022-09-26T00:44:00.710Z,3.25
2022-09-26T00:46:53.980Z,3.17
2022-09-26T00:49:50.894Z,3.08
2022-09-26T00:52:50.619Z,2.60
2022-09-26T00:55:47.119Z,4.38
2022-09-26T00:58:44.259Z,4.50
2022-09-26T01:01:38.631Z,3.53
2022-09-26T01:04:35.265Z,3.88
2022-09-26T01:07:29.912Z,2.78
2022-09-26T01:10:24.521Z,3.30
2022-09-26T01:13:18.368Z,3.22
2022-09-26T01:16:11.635Z,4.20
2022-09-26T01:19:13.795Z,2.88
2022-09-26T01:22:39.501Z,4.05
2022-09-26T01:25:53.140Z,3.30
2022-09-26T01:29:15.093Z,3.50
2022-09-26T01:32:39.012Z,3.08
2022-09-26T01:35:47.275Z,2.83
2022-09-26T01:38:50.394Z,3.63
2022-09-26T01:41:51.670Z,3.10
2022-09-26T01:44:51.046Z,3.85
2022-09-26T01:47:52.068Z,2.95
2022-09-26T01:50:49.964Z,2.08
2022-09-26T01:53:48.097Z,2.65
2022-09-26T01:56:42.964Z,3.08
2022-09-26T01:59:41.982Z,2.67
2022-09-26T02:02:40.303Z,3.13
2022-09-26T02:05:41.091Z,2.25
2022-09-26T02:08:39.011Z,2.72
2022-09-26T02:11:31.568Z,3.67
2022-09-26T02:14:28.737Z,2.50
2022-09-26T02:17:26.776Z,2.75
2022-09-26T02:20:26.816Z,3.67
2022-09-26T02:23:22.178Z,2.65
2022-09-26T02:26:14.946Z,3.13
2022-09-26T02:29:08.666Z,3.45
2022-09-26T02:32:06.110Z,2.78
2022-09-26T02:34:59.447Z,2.95
2022-09-26T02:37:52.793Z,4.03
2022-09-26T02:40:52.442Z,2.78
2022-09-26T02:43:58.388Z,3.38
2022-09-26T02:47:10.466Z,3.38
2022-09-26T02:50:21.246Z,2.85
2022-09-26T02:53:24.338Z,2.67
2022-09-26T02:56:28.045Z,2.75
2022-09-26T02:59:29.221Z,3.20
2022-09-26T03:02:28.174Z,2.30
2022-09-26T03:05:23.689Z,3.00
2022-09-26T03:08:21.482Z,4.55
2022-09-26T03:11:23.041Z,4.07
2022-09-26T03:14:19.072Z,2.85
2022-09-26T03:17:12.540Z,3.55
2022-09-26T03:20:11.065Z,3.25
2022-09-26T03:23:05.576Z,3.00
2022-09-26T03:26:01.989Z,3.30
2022-09-26T03:28:56.864Z,2.72
2022-09-26T03:31:51.082Z,2.22
2022-09-26T03:34:44.121Z,2.60
2022-09-26T03:37:37.962Z,2.85
2022-09-26T03:40:31.897Z,3.58
2022-09-26T03:43:25.179Z,2.45
2022-09-26T03:46:18.323Z,2.95
2022-09-26T03:49:13.292Z,2.88
2022-09-26T03:52:10.888Z,2.55
2022-09-26T03:55:04.235Z,3.13
2022-09-26T03:57:57.337Z,2.33
2022-09-26T04:00:51.017Z,2.40
2022-09-26T04:03:50.294Z,2.47
2022-09-26T04:06:44.935Z,2.42
2022-09-26T04:09:37.744Z,1.50
2022-09-26T04:12:30.710Z,2.15
2022-09-26T04:15:23.858Z,2.90
2022-09-26T04:18:17.011Z,2.88
2022-09-26T04:21:14.047Z,3.40
2022-09-26T04:24:13.500Z,3.25
2022-09-26T04:27:07.450Z,2.83
2022-09-26T04:30:00.934Z,2.28
2022-09-26T04:32:53.824Z,4.05
2022-09-26T04:35:48.041Z,1.90
2022-09-26T04:38:40.985Z,2.83
2022-09-26T04:41:35.449Z,2.80
2022-09-26T04:44:30.616Z,2.72
2022-09-26T04:47:24.004Z,2.00
2022-09-26T04:50:17.463Z,2.35
2022-09-26T04:53:12.201Z,2.03
2022-09-26T04:56:06.567Z,2.65
2022-09-26T04:59:02.139Z,3.65
2022-09-26T05:01:56.191Z,4.55
2022-09-26T05:04:49.643Z,2.08
2022-09-26T05:07:43.008Z,2.05
2022-09-26T05:10:36.182Z,2.80
2022-09-26T05:13:29.833Z,2.80
2022-09-26T05:16:28.198Z,3.80
2022-09-26T05:19:21.435Z,2.85
2022-09-26T05:22:14.970Z,3.15
2022-09-26T05:25:26.205Z,2.65
2022-09-26T05:28:19.308Z,2.30
2022-09-26T05:31:11.939Z,3.35
2022-09-26T05:34:07.372Z,2.35
2022-09-26T05:37:01.829Z,1.65
2022-09-26T05:40:12.820Z,2.67
2022-09-26T05:43:08.127Z,4.32
2022-09-26T05:46:03.773Z,2.60
2022-09-26T05:48:57.333Z,3.17
2022-09-26T05:51:52.449Z,4.35
2022-09-26T05:54:46.418Z,3.53
2022-09-26T05:57:40.040Z,3.38
2022-09-26T06:00:33.868Z,2.90
2022-09-26T06:03:34.381Z,2.78
2022-09-26T06:06:27.158Z,2.88
2022-09-26T06:09:21.216Z,2.42
2022-09-26T06:12:14.063Z,4.53
2022-09-26T06:15:09.363Z,3.15
2022-09-26T06:18:05.057Z,3.83
2022-09-26T06:20:57.885Z,3.70
2022-09-26T06:23:51.207Z,3.28
2022-09-26T06:26:45.140Z,3.50
2022-09-26T06:29:37.707Z,2.47
2022-09-26T06:32:30.956Z,4.22
2022-09-26T06:35:24.153Z,5.40
2022-09-26T06:38:16.696Z,4.57
2022-09-26T06:41:09.900Z,4.63
2022-09-26T06:44:04.718Z,2.95
2022-09-26T06:47:00.817Z,3.40
2022-09-26T06:49:53.859Z,3.72
2022-09-26T06:52:47.385Z,4.07
2022-09-26T06:55:39.783Z,4.25
2022-09-26T06:58:34.521Z,3.20
2022-09-26T07:01:29.719Z,2.90
2022-09-26T07:04:27.185Z,4.72
2022-09-26T07:07:20.158Z,3.90
2022-09-26T07:10:13.123Z,5.22
2022-09-26T07:13:07.677Z,3.88
2022-09-26T07:16:01.615Z,5.28
2022-09-26T07:18:56.503Z,4.50
2022-09-26T07:21:50.187Z,4.00
2022-09-26T07:24:48.569Z,3.75
2022-09-26T07:27:42.191Z,4.00
2022-09-26T07:30:35.102Z,4.85
2022-09-26T07:33:28.106Z,4.97
2022-09-26T07:36:22.978Z,4.35
2022-09-26T07:39:16.300Z,5.07
2022-09-26T07:42:09.578Z,6.38
2022-09-26T07:45:27.918Z,5.25
2022-09-26T07:48:33.279Z,4.57
2022-09-26T07:51:27.712Z,4.57
2022-09-26T07:54:21.096Z,5.05
2022-09-26T07:57:15.587Z,5.88
2022-09-26T08:00:13.244Z,4.80
2022-09-26T08:03:06.424Z,3.97
2022-09-26T08:06:01.509Z,4.43
2022-09-26T08:08:58.079Z,4.32
2022-09-26T08:11:51.037Z,5.43
2022-09-26T08:14:47.659Z,4.18
2022-09-26T08:17:42.202Z,5.03
2022-09-26T08:20:35.703Z,4.20
2022-09-26T08:23:30.213Z,2.65
2022-09-26T08:26:24.547Z,3.28
2022-09-26T08:29:18.195Z,3.67
2022-09-26T08:32:11.041Z,4.63
2022-09-26T08:35:04.510Z,5.78
2022-09-26T08:37:58.004Z,5.05
2022-09-26T08:40:57.400Z,4.28
2022-09-26T08:44:02.809Z,5.38
2022-09-26T08:47:01.325Z,6.85
2022-09-26T08:50:11.790Z,5.88
2022-09-26T08:53:09.694Z,6.10
2022-09-26T08:56:12.379Z,4.22
2022-09-26T08:59:12.083Z,5.03
2022-09-26T09:02:13.893Z,5.35
2022-09-26T09:05:11.163Z,6.65
2022-09-26T09:08:08.029Z,4.75
2022-09-26T09:11:13.009Z,4.25
2022-09-26T09:14:21.051Z,3.92
2022-09-26T09:17:22.636Z,7.22
2022-09-26T09:20:21.279Z,5.05
2022-09-26T09:23:46.763Z,5.03
2022-09-26T09:30:17.475Z,4.28
2022-09-26T09:33:15.377Z,5.05
2022-09-26T09:36:11.332Z,2.92
2022-09-26T09:39:07.536Z,4.78
2022-09-26T09:42:05.146Z,3.72
2022-09-26T09:45:05.202Z,4.63
2022-09-26T09:47:59.840Z,5.03
2022-09-26T09:51:05.502Z,4.00
2022-09-26T09:54:23.151Z,5.10
2022-09-26T09:57:39.780Z,5.38
2022-09-26T10:00:37.095Z,3.05
2022-09-26T10:03:39.926Z,3.80
2022-09-26T10:06:45.214Z,3.63
2022-09-26T10:09:41.879Z,4.35
2022-09-26T10:12:36.651Z,4.32
2022-09-26T10:15:30.476Z,4.85
2022-09-26T10:18:25.320Z,3.90
2022-09-26T10:21:21.443Z,4.25
2022-09-26T10:24:25.778Z,3.08
2022-09-26T10:27:26.351Z,3.13
2022-09-26T10:30:26.760Z,4.18
2022-09-26T10:33:30.302Z,3.40
2022-09-26T10:36:31.886Z,3.72
2022-09-26T10:39:47.496Z,2.97
2022-09-26T10:42:40.462Z,3.80
2022-09-26T10:45:36.357Z,5.53
2022-09-26T10:48:47.815Z,2.55
2022-09-26T10:51:50.410Z,2.47
2022-09-26T10:54:49.041Z,3.83
2022-09-26T10:57:46.652Z,3.33
2022-09-26T11:00:42.364Z,3.03
2022-09-26T11:03:41.394Z,3.95
2022-09-26T11:06:36.038Z,2.50
2022-09-26T11:09:31.856Z,3.25
2022-09-26T11:12:27.073Z,3.03
2022-09-26T11:15:20.568Z,3.75
2022-09-26T11:18:26.109Z,2.13
2022-09-26T11:21:29.357Z,2.78
2022-09-26T11:24:26.881Z,2.80
2022-09-26T11:27:30.402Z,2.45
2022-09-26T11:30:24.091Z,3.35
2022-09-26T11:33:18.800Z,2.28
2022-09-26T11:36:35.851Z,2.90
2022-09-26T11:39:50.304Z,2.20
2022-09-26T11:43:01.080Z,2.47
2022-09-26T11:46:15.206Z,2.35
2022-09-26T11:49:26.263Z,2.90
2022-09-26T11:52:38.337Z,2.30
2022-09-26T11:55:38.259Z,3.75
2022-09-26T11:58:40.183Z,4.05
2022-09-26T12:01:44.003Z,2.38
2022-09-26T12:05:02.754Z,1.63
2022-09-26T12:08:06.284Z,2.42
2022-09-26T12:11:07.470Z,3.30
2022-09-26T12:14:10.913Z,2.70
2022-09-26T12:17:15.006Z,3.63
2022-09-26T12:20:22.303Z,1.75
2022-09-26T12:23:24.405Z,2.50
2022-09-26T12:26:22.567Z,2.35
2022-09-26T12:29:29.082Z,3.90
2022-09-26T12:32:41.896Z,2.42
2022-09-26T12:35:52.669Z,2.55
2022-09-26T12:39:08.848Z,2.15
2022-09-26T12:42:14.060Z,2.90
2022-09-26T12:45:41.989Z,3.58
2022-09-26T12:48:49.039Z,2.25
2022-09-26T12:51:47.097Z,1.77
2022-09-26T12:55:00.066Z,3.53
2022-09-26T12:58:06.215Z,2.45
2022-09-26T13:01:28.031Z,2.47
2022-09-26T13:04:53.073Z,2.47
2022-09-26T13:08:05.081Z,3.00
2022-09-26T13:11:10.427Z,3.53
2022-09-26T13:14:30.703Z,3.15
2022-09-26T13:17:28.838Z,2.75
2022-09-26T13:20:28.440Z,2.15
2022-09-26T13:23:27.232Z,2.25
2022-09-26T13:26:26.549Z,4.65
2022-09-26T13:29:25.525Z,2.78
2022-09-26T13:32:24.314Z,1.83
2022-09-26T13:35:21.899Z,2.92
2022-09-26T13:38:27.310Z,2.58
2022-09-26T13:41:45.270Z,3.63
2022-09-26T13:44:55.703Z,2.00
2022-09-26T13:47:55.001Z,2.53
2022-09-26T13:50:55.697Z,2.97
2022-09-26T13:53:59.917Z,1.90
2022-09-26T13:56:56.118Z,2.20
2022-09-26T13:59:54.078Z,2.25
2022-09-26T14:03:47.685Z,2.50
2022-09-26T14:07:26.447Z,1.63
2022-09-26T14:10:35.823Z,1.60
2022-09-26T14:13:35.668Z,2.35
2022-09-26T14:16:35.665Z,1.92
2022-09-26T14:19:36.146Z,1.35
2022-09-26T14:22:37.556Z,2.35
2022-09-26T14:25:56.825Z,1.67
2022-09-26T14:28:55.519Z,3.05
2022-09-26T14:32:01.579Z,2.15
2022-09-26T14:34:59.527Z,2.53
2022-09-26T14:38:00.669Z,1.45
2022-09-26T14:40:57.184Z,2.13
2022-09-26T14:43:52.454Z,1.80
2022-09-26T14:46:51.155Z,2.78
2022-09-26T14:49:53.057Z,1.60
2022-09-26T14:52:56.068Z,1.42
2022-09-26T14:56:00.182Z,1.67
2022-09-26T14:58:55.247Z,2.03
2022-09-26T15:01:48.964Z,2.33
2022-09-26T15:04:44.812Z,2.05
2022-09-26T15:07:44.402Z,1.67
2022-09-26T15:10:43.140Z,2.53
2022-09-26T15:13:39.377Z,2.47
2022-09-26T15:16:38.507Z,1.90
2022-09-26T15:19:35.748Z,2.15
2022-09-26T15:22:31.728Z,2.28
2022-09-26T15:25:31.475Z,2.05
2022-09-26T15:28:26.142Z,2.00
2022-09-26T15:31:28.776Z,1.85
2022-09-26T15:34:25.213Z,1.38
2022-09-26T15:37:22.378Z,1.33
2022-09-26T15:40:20.131Z,2.38
2022-09-26T15:43:20.289Z,1.25
2022-09-26T15:46:24.315Z,1.40
2022-09-26T15:49:22.156Z,1.17
2022-09-26T15:52:15.848Z,2.33
2022-09-26T15:55:16.356Z,1.38
2022-09-26T15:58:15.507Z,1.52
2022-09-26T16:01:09.468Z,2.75
2022-09-26T16:04:06.708Z,1.92
2022-09-26T16:07:03.165Z,1.60
2022-09-26T16:09:57.784Z,1.50
2022-09-26T16:12:50.487Z,1.10
2022-09-26T16:15:44.821Z,1.98
2022-09-26T16:18:47.113Z,1.42
2022-09-26T16:21:41.912Z,1.10
2022-09-26T16:24:35.906Z,1.63
2022-09-26T16:27:35.402Z,1.38
2022-09-26T16:30:42.035Z,1.55
2022-09-26T16:33:39.197Z,2.50
2022-09-26T16:36:35.046Z,0.80
2022-09-26T16:39:32.296Z,1.40
2022-09-26T16:42:31.173Z,2.33
2022-09-26T16:45:24.969Z,1.73
2022-09-26T16:48:36.030Z,3.47
2022-09-26T16:51:38.878Z,3.92
2022-09-26T16:54:34.244Z,3.85
2022-09-26T16:57:30.220Z,5.53
2022-09-26T17:00:54.754Z,7.93
2022-09-26T17:03:48.101Z,7.13
2022-09-26T17:06:41.451Z,9.57
2022-09-26T17:09:36.144Z,4.90
2022-09-26T17:12:29.634Z,5.18
2022-09-26T17:15:29.891Z,4.75
2022-09-26T17:18:28.826Z,8.10
2022-09-26T17:21:22.524Z,8.23
2022-09-26T17:24:18.198Z,8.38
2022-09-26T17:27:16.405Z,7.97
2022-09-26T17:30:17.277Z,9.02
2022-09-26T17:33:12.053Z,9.60
2022-09-26T17:36:10.629Z,7.85
2022-09-26T17:39:03.611Z,8.02
2022-09-26T17:41:59.150Z,6.05
2022-09-26T17:44:54.409Z,11.07
2022-09-26T17:47:47.899Z,9.27
2022-09-26T17:50:42.657Z,5.57
2022-09-26T17:53:38.804Z,9.60
2022-09-26T17:56:31.942Z,6.15
2022-09-26T17:59:28.556Z,11.63
2022-09-26T18:02:30.271Z,8.27
2022-09-26T18:05:26.602Z,8.77
2022-09-26T18:08:24.546Z,9.70
2022-09-26T18:11:19.650Z,9.65
2022-09-26T18:14:16.930Z,7.93
2022-09-26T18:17:15.287Z,6.32
2022-09-26T18:20:11.202Z,8.27
2022-09-26T18:23:07.532Z,9.10
2022-09-26T18:26:01.204Z,9.85
2022-09-26T18:28:56.828Z,6.90
2022-09-26T18:31:49.932Z,10.50
2022-09-26T18:34:42.957Z,8.40
2022-09-26T18:37:38.071Z,8.10
2022-09-26T18:40:31.795Z,7.60
2022-09-26T18:43:29.397Z,9.82
2022-09-26T18:46:23.665Z,6.30
2022-09-26T18:49:17.761Z,7.57
2022-09-26T18:52:15.033Z,8.32
2022-09-26T18:55:39.104Z,6.85
2022-09-26T18:58:34.029Z,6.95
2022-09-26T19:01:29.558Z,7.43
2022-09-26T19:04:27.078Z,10.60
2022-09-26T19:07:21.828Z,8.77
2022-09-26T19:10:18.619Z,9.75
2022-09-26T19:13:11.964Z,6.10
2022-09-26T19:16:05.196Z,7.40
2022-09-26T19:18:58.579Z,8.35
2022-09-26T19:21:54.015Z,6.65
2022-09-26T19:24:51.573Z,6.70
2022-09-26T19:27:49.617Z,8.80
2022-09-26T19:30:43.204Z,7.10
2022-09-26T19:33:40.933Z,8.13
2022-09-26T19:36:33.840Z,7.68
2022-09-26T19:39:27.687Z,8.48
2022-09-26T19:42:21.062Z,8.25
2022-09-26T19:45:17.226Z,8.15
2022-09-26T19:48:16.603Z,7.15
2022-09-26T19:51:13.550Z,8.25
2022-09-26T19:54:07.675Z,7.78
2022-09-26T19:57:01.032Z,5.22
2022-09-26T19:59:53.983Z,6.90
2022-09-26T20:02:52.419Z,8.20
2022-09-26T20:05:46.893Z,6.63
2022-09-26T20:08:39.602Z,10.73
2022-09-26T20:11:32.793Z,6.70
2022-09-26T20:14:26.181Z,6.05
2022-09-26T20:17:24.457Z,6.35
2022-09-26T20:20:22.763Z,4.88
2022-09-26T20:23:20.223Z,6.53
2022-09-26T20:26:15.299Z,5.10
2022-09-26T20:29:13.911Z,5.95
2022-09-26T20:32:09.356Z,7.28
2022-09-26T20:35:06.761Z,5.15
2022-09-26T20:38:03.795Z,4.95
2022-09-26T20:41:02.879Z,5.15
2022-09-26T20:44:01.738Z,6.10
2022-09-26T20:46:59.033Z,5.32
2022-09-26T20:49:56.056Z,5.35
2022-09-26T20:52:48.782Z,5.85
2022-09-26T20:55:44.410Z,6.25
2022-09-26T20:58:37.837Z,4.57
2022-09-26T21:01:30.965Z,2.78
2022-09-26T21:04:31.590Z,3.25
2022-09-26T21:07:25.726Z,3.97
2022-09-26T21:10:24.266Z,3.45
2022-09-26T21:13:19.545Z,3.92
2022-09-26T21:16:14.665Z,4.05
2022-09-26T21:19:10.567Z,3.50
2022-09-26T21:22:03.767Z,4.18
2022-09-26T21:24:57.284Z,3.50
2022-09-26T21:27:54.738Z,3.45
2022-09-26T21:30:49.830Z,3.25
2022-09-26T21:33:43.434Z,2.92
2022-09-26T21:36:40.437Z,3.60
2022-09-26T21:39:33.963Z,2.40
2022-09-26T21:42:27.272Z,3.60
2022-09-26T21:45:27.143Z,3.17
2022-09-26T21:48:22.220Z,2.40
2022-09-26T21:51:16.303Z,2.47
2022-09-26T21:54:14.977Z,3.70
2022-09-26T21:57:11.265Z,2.63
2022-09-26T22:00:08.044Z,2.33
2022-09-26T22:03:00.735Z,3.70
2022-09-26T22:05:55.459Z,2.38
2022-09-26T22:08:50.355Z,2.55
2022-09-26T22:11:43.892Z,4.18
2022-09-26T22:14:37.341Z,3.47
2022-09-26T22:17:30.868Z,2.35
2022-09-26T22:20:24.039Z,2.85
2022-09-26T22:23:18.146Z,1.85
2022-09-26T22:26:11.269Z,1.92
2022-09-26T22:29:05.297Z,3.08
2022-09-26T22:31:59.108Z,4.80
2022-09-26T22:34:51.958Z,3.25
2022-09-26T22:37:45.510Z,3.70
2022-09-26T22:40:40.411Z,2.72
2022-09-26T22:43:35.045Z,3.35
2022-09-26T22:46:27.822Z,2.83
2022-09-26T22:49:21.418Z,1.48
2022-09-26T22:52:15.017Z,3.28
2022-09-26T22:55:08.895Z,1.73
2022-09-26T22:58:03.476Z,1.60
2022-09-26T23:01:00.865Z,1.80
2022-09-26T23:03:53.998Z,2.60
2022-09-26T23:06:46.908Z,2.00
2022-09-26T23:09:39.904Z,1.90
2022-09-26T23:12:33.060Z,2.95
2022-09-26T23:15:27.588Z,2.78
2022-09-26T23:18:21.291Z,2.20
2022-09-26T23:21:16.530Z,1.92
2022-09-26T23:24:10.501Z,2.85
2022-09-26T23:27:03.837Z,1.60
2022-09-26T23:29:57.074Z,1.65
2022-09-26T23:32:51.340Z,2.30
2022-09-26T23:35:45.509Z,1.42
2022-09-26T23:38:39.896Z,1.73
2022-09-26T23:41:33.195Z,1.23
2022-09-26T23:44:26.061Z,2.33
2022-09-26T23:47:19.350Z,2.50
2022-09-26T23:50:14.305Z,1.55
2022-09-26T23:53:08.306Z,1.38
2022-09-26T23:56:05.729Z,1.48
2022-09-26T23:58:59.595Z,1.65
